createdAt,value
2022-11-29T00:00:59.767Z,20.22
2022-11-29T00:06:06.664Z,20.16
2022-11-29T00:11:10.632Z,20.21
2022-11-29T00:16:13.384Z,20.19
2022-11-29T00:21:17.497Z,20.22
2022-11-29T00:26:20.416Z,20.21
2022-11-29T00:31:23.873Z,20.16
2022-11-29T00:36:28.150Z,20.21
2022-11-29T00:41:31.383Z,20.22
2022-11-29T00:46:34.366Z,20.17
2022-11-29T00:51:38.552Z,20.20
2022-11-29T00:56:41.646Z,20.17
2022-11-29T01:01:44.677Z,20.09
2022-11-29T01:06:51.249Z,20.16
2022-11-29T01:11:54.045Z,20.27
2022-11-29T01:16:57.096Z,20.21
2022-11-29T01:22:01.321Z,20.26
2022-11-29T01:27:04.094Z,20.20
2022-11-29T01:32:07.042Z,20.20
2022-11-29T01:37:11.153Z,20.21
2022-11-29T01:42:14.024Z,20.17
2022-11-29T01:47:16.998Z,20.17
2022-11-29T01:52:22.418Z,20.21
2022-11-29T01:57:25.359Z,20.22
2022-11-29T02:02:30.342Z,20.20
2022-11-29T02:07:34.612Z,20.20
2022-11-29T02:12:41.566Z,20.18
2022-11-29T02:17:53.161Z,20.11
2022-11-29T02:22:58.392Z,20.09
2022-11-29T02:28:31.232Z,20.06
2022-11-29T02:33:59.182Z,20.07
2022-11-29T02:39:09.118Z,20.09
2022-11-29T02:44:29.763Z,20.07
2022-11-29T02:49:42.737Z,20.04
2022-11-29T02:54:48.061Z,20.04
2022-11-29T02:59:53.857Z,20.06
2022-11-29T03:05:00.898Z,20.02
2022-11-29T03:10:06.311Z,19.99
2022-11-29T03:15:18.116Z,19.99
2022-11-29T03:20:30.343Z,19.95
2022-11-29T03:25:34.983Z,19.89
2022-11-29T03:30:38.771Z,19.84
2022-11-29T03:35:44.900Z,19.85
2022-11-29T03:40:51.288Z,19.79
2022-11-29T03:45:57.105Z,19.82
2022-11-29T03:51:04.574Z,19.75
2022-11-29T03:56:23.997Z,19.72
2022-11-29T04:01:56.928Z,19.56
2022-11-29T04:07:06.922Z,19.52
2022-11-29T04:12:37.734Z,19.54
2022-11-29T04:17:55.599Z,19.51
2022-11-29T04:23:34.553Z,19.41
2022-11-29T04:29:00.636Z,19.40
2022-11-29T04:34:19.270Z,19.37
2022-11-29T04:39:33.451Z,19.31
2022-11-29T04:44:44.532Z,19.31
2022-11-29T04:49:56.721Z,19.28
2022-11-29T04:55:03.356Z,19.23
2022-11-29T05:00:09.950Z,19.19
2022-11-29T05:05:19.512Z,19.17
2022-11-29T05:10:26.305Z,19.16
2022-11-29T05:16:05.622Z,19.12
2022-11-29T05:21:10.648Z,19.07
2022-11-29T05:26:15.984Z,19.05
2022-11-29T05:31:44.553Z,19.03
2022-11-29T05:36:50.133Z,19.00
2022-11-29T05:42:05.382Z,18.97
2022-11-29T05:47:10.704Z,18.99
2022-11-29T05:52:24.300Z,18.95
2022-11-29T05:57:30.274Z,18.98
2022-11-29T06:02:46.765Z,18.93
2022-11-29T06:07:52.992Z,18.94
2022-11-29T06:13:00.304Z,18.92
2022-11-29T06:18:15.120Z,18.91
2022-11-29T06:23:24.605Z,18.88
2022-11-29T06:28:33.033Z,18.88
2022-11-29T06:33:41.609Z,18.89
2022-11-29T06:38:44.845Z,18.86
2022-11-29T06:43:48.232Z,18.84
2022-11-29T06:48:57.851Z,18.80
2022-11-29T06:54:10.023Z,18.85
2022-11-29T06:59:18.335Z,18.82
2022-11-29T07:04:46.376Z,18.81
2022-11-29T07:09:50.622Z,18.78
2022-11-29T07:14:54.258Z,18.81
2022-11-29T07:20:04.550Z,18.78
2022-11-29T07:25:13.556Z,18.78
2022-11-29T07:30:18.018Z,18.79
2022-11-29T07:35:24.015Z,18.71
2022-11-29T07:40:34.440Z,18.73
2022-11-29T07:45:40.155Z,18.68
2022-11-29T07:50:44.435Z,18.69
2022-11-29T07:55:47.354Z,18.70
2022-11-29T08:00:50.208Z,18.70
2022-11-29T08:05:54.739Z,17.91
2022-11-29T08:10:57.486Z,17.31
2022-11-29T08:16:00.343Z,16.94
2022-11-29T08:21:08.108Z,17.23
2022-11-29T08:26:10.929Z,17.49
2022-11-29T08:31:14.041Z,17.66
2022-11-29T08:36:19.029Z,17.80
2022-11-29T08:41:21.807Z,17.87
2022-11-29T08:46:44.785Z,17.98
2022-11-29T08:51:48.937Z,18.03
2022-11-29T09:02:14.571Z,18.18
2022-11-29T09:07:18.917Z,18.21
2022-11-29T09:12:21.779Z,18.26
2022-11-29T09:17:24.606Z,18.30
2022-11-29T09:22:28.784Z,18.36
2022-11-29T09:27:32.056Z,18.37
2022-11-29T09:32:35.499Z,18.38
2022-11-29T09:37:42.894Z,18.41
2022-11-29T09:42:51.053Z,18.43
2022-11-29T09:47:59.866Z,18.46
2022-11-29T09:53:15.943Z,18.49
2022-11-29T09:58:20.765Z,18.52
2022-11-29T10:03:25.406Z,18.55
2022-11-29T10:08:34.806Z,18.57
2022-11-29T10:13:40.423Z,18.62
2022-11-29T10:18:45.270Z,18.63
2022-11-29T10:23:50.220Z,18.63
2022-11-29T10:28:55.961Z,18.60
2022-11-29T10:34:00.802Z,18.58
2022-11-29T10:39:12.986Z,18.61
2022-11-29T10:44:17.110Z,18.63
2022-11-29T10:49:20.769Z,18.64
2022-11-29T10:54:33.648Z,18.65
2022-11-29T10:59:36.401Z,18.65
2022-11-29T11:04:45.733Z,18.63
2022-11-29T11:09:50.735Z,18.63
2022-11-29T11:14:53.948Z,18.62
2022-11-29T11:19:58.111Z,18.63
2022-11-29T11:25:03.122Z,18.63
2022-11-29T11:30:06.955Z,18.61
2022-11-29T11:35:22.446Z,18.63
2022-11-29T11:40:28.965Z,18.66
2022-11-29T11:45:34.181Z,18.66
2022-11-29T11:50:41.528Z,18.69
2022-11-29T11:55:56.773Z,18.71
2022-11-29T12:01:04.736Z,18.70
2022-11-29T12:06:18.753Z,18.68
2022-11-29T12:11:22.969Z,18.72
2022-11-29T12:16:28.488Z,18.71
2022-11-29T12:21:34.368Z,18.70
2022-11-29T12:32:15.795Z,18.69
2022-11-29T12:37:21.823Z,18.66
2022-11-29T12:42:36.578Z,18.66
2022-11-29T12:47:50.333Z,18.66
2022-11-29T12:52:59.612Z,18.66
2022-11-29T12:58:05.921Z,18.65
2022-11-29T13:03:22.455Z,18.28
2022-11-29T13:08:46.913Z,17.50
2022-11-29T13:13:52.807Z,17.20
2022-11-29T13:18:58.081Z,17.48
2022-11-29T13:24:10.537Z,17.67
2022-11-29T13:29:17.966Z,17.76
2022-11-29T13:34:23.217Z,17.82
2022-11-29T13:39:33.762Z,17.86
2022-11-29T13:44:39.338Z,17.90
2022-11-29T13:49:53.420Z,17.93
2022-11-29T13:55:07.353Z,17.95
2022-11-29T14:00:28.940Z,18.05
2022-11-29T14:05:32.397Z,18.14
2022-11-29T14:10:35.178Z,18.24
2022-11-29T14:15:39.393Z,18.36
2022-11-29T14:20:46.503Z,18.42
2022-11-29T14:26:28.512Z,18.40
2022-11-29T14:31:56.113Z,18.41
2022-11-29T14:37:00.569Z,18.44
2022-11-29T14:42:07.767Z,18.59
2022-11-29T14:47:21.224Z,18.80
2022-11-29T14:52:32.013Z,18.94
2022-11-29T14:58:11.339Z,19.18
2022-11-29T15:03:19.913Z,19.27
2022-11-29T15:08:32.138Z,19.30
2022-11-29T15:13:36.672Z,19.31
2022-11-29T15:19:08.254Z,19.32
2022-11-29T15:24:11.871Z,19.45
2022-11-29T15:29:15.419Z,19.53
2022-11-29T15:34:21.813Z,19.54
2022-11-29T15:39:26.230Z,19.57
2022-11-29T15:44:29.058Z,19.62
2022-11-29T15:49:33.217Z,19.68
2022-11-29T15:54:38.665Z,19.80
2022-11-29T15:59:42.831Z,19.90
2022-11-29T16:04:47.447Z,19.89
2022-11-29T16:09:51.649Z,19.89
2022-11-29T16:14:55.925Z,19.90
2022-11-29T16:20:23.560Z,20.02
2022-11-29T16:25:27.450Z,20.01
2022-11-29T16:30:30.204Z,20.04
2022-11-29T16:35:34.884Z,20.02
2022-11-29T16:40:37.860Z,20.05
2022-11-29T16:45:41.200Z,20.11
2022-11-29T16:50:46.060Z,20.16
2022-11-29T16:55:48.902Z,20.15
2022-11-29T17:00:52.079Z,20.15
2022-11-29T17:05:56.329Z,20.19
2022-11-29T17:10:59.197Z,20.19
2022-11-29T17:16:01.982Z,20.31
2022-11-29T17:21:06.420Z,20.37
2022-11-29T17:26:10.102Z,20.44
2022-11-29T17:31:13.184Z,20.41
2022-11-29T17:36:18.189Z,20.36
2022-11-29T17:41:22.623Z,20.36
2022-11-29T17:46:26.065Z,20.29
2022-11-29T17:56:53.065Z,20.25
2022-11-29T18:01:55.912Z,20.32
2022-11-29T18:07:01.480Z,20.39
2022-11-29T18:12:04.593Z,20.34
2022-11-29T18:17:07.413Z,20.37
2022-11-29T18:22:11.697Z,20.37
2022-11-29T18:27:14.701Z,20.33
2022-11-29T18:32:17.555Z,20.30
2022-11-29T18:37:47.471Z,20.29
2022-11-29T18:42:44.524Z,20.37
2022-11-29T18:47:47.503Z,20.37
2022-11-29T18:52:54.073Z,20.38
2022-11-29T18:57:56.857Z,20.37
2022-11-29T19:02:59.702Z,20.42
2022-11-29T19:08:03.853Z,20.44
2022-11-29T19:13:06.665Z,20.44
2022-11-29T19:18:09.525Z,20.43
2022-11-29T19:23:13.731Z,20.37
2022-11-29T19:28:17.135Z,20.29
2022-11-29T19:33:19.916Z,20.26
2022-11-29T19:38:24.066Z,20.20
2022-11-29T19:43:26.867Z,20.14
2022-11-29T19:48:29.717Z,20.14
2022-11-29T19:53:34.325Z,20.14
2022-11-29T19:58:37.345Z,20.13
2022-11-29T20:03:40.399Z,20.15
2022-11-29T20:08:44.750Z,20.21
2022-11-29T20:13:48.202Z,20.21
2022-11-29T20:18:51.554Z,20.19
2022-11-29T20:23:57.344Z,20.22
2022-11-29T20:29:00.322Z,20.25
2022-11-29T20:34:03.349Z,20.26
2022-11-29T20:39:12.710Z,20.33
2022-11-29T20:44:18.189Z,20.37
2022-11-29T20:49:21.527Z,20.45
2022-11-29T20:54:25.774Z,20.68
2022-11-29T20:59:28.679Z,20.80
2022-11-29T21:04:58.529Z,20.86
2022-11-29T21:10:02.703Z,20.88
2022-11-29T21:15:06.650Z,20.91
2022-11-29T21:20:10.187Z,20.95
2022-11-29T21:25:16.650Z,20.96
2022-11-29T21:30:20.957Z,20.98
2022-11-29T21:35:23.701Z,20.98
2022-11-29T21:40:27.906Z,21.03
2022-11-29T21:45:30.648Z,21.05
2022-11-29T21:50:33.386Z,21.07
2022-11-29T21:55:37.558Z,21.06
2022-11-29T22:00:40.319Z,21.03
2022-11-29T22:05:43.123Z,21.06
2022-11-29T22:10:47.217Z,21.04
2022-11-29T22:15:50.011Z,21.02
2022-11-29T22:20:52.913Z,21.08
2022-11-29T22:25:57.057Z,21.15
2022-11-29T22:31:06.639Z,21.21
2022-11-29T22:36:10.634Z,21.23
2022-11-29T22:41:15.242Z,21.23
2022-11-29T22:46:19.633Z,21.25
2022-11-29T22:51:23.224Z,21.27
2022-11-29T22:56:28.260Z,21.25
2022-11-29T23:01:31.958Z,21.27
2022-11-29T23:06:35.709Z,21.24
2022-11-29T23:11:39.898Z,21.28
2022-11-29T23:16:42.762Z,21.29
2022-11-29T23:21:46.235Z,21.26
2022-11-29T23:26:50.484Z,21.27
2022-11-29T23:31:53.393Z,21.27
2022-11-29T23:36:56.417Z,21.30
2022-11-29T23:42:00.740Z,21.27
2022-11-29T23:47:03.552Z,21.25
2022-11-29T23:52:06.404Z,21.27
2022-11-29T23:57:10.626Z,21.30
